Time;durP1;ratioP1;P1;durP2;ratioP2;P2;SDS_P1;SDS_P2;PMS_P1;PMS_P2;Temp;Humidity;BMP_temperature;BMP_pressure;BME280_temperature;BME280_humidity;BME280_pressure;Samples;Min_cycle;Max_cycle;Signal;HPM_P1;HPM_P2
2021/04/18 00:00:38;;;;;;;4.08;1.50;;;5.60;99.90;;;;;;1987949;72;21143;-78
2021/04/18 00:03:04;;;;;;;1.85;1.60;;;5.50;99.90;;;;;;1987909;72;21508;-79
2021/04/18 00:05:30;;;;;;;3.22;1.62;;;5.50;99.90;;;;;;1987993;72;21505;-78
2021/04/18 00:08:03;;;;;;;1.95;1.70;;;5.50;99.90;;;;;;1987898;72;21481;-78
2021/04/18 00:10:29;;;;;;;3.30;1.87;;;5.40;99.90;;;;;;1987904;72;21061;-78
2021/04/18 00:12:55;;;;;;;2.30;1.90;;;5.40;99.90;;;;;;1987867;72;21140;-79
2021/04/18 00:15:21;;;;;;;1.70;1.60;;;5.40;99.90;;;;;;1988109;72;21073;-79
2021/04/18 00:17:47;;;;;;;3.17;1.77;;;5.40;99.90;;;;;;1987898;72;21142;-78
2021/04/18 00:20:13;;;;;;;1.55;1.45;;;5.40;99.90;;;;;;1988082;72;21207;-79
2021/04/18 00:22:39;;;;;;;2.10;1.77;;;5.40;99.90;;;;;;1988148;72;21017;-78
2021/04/18 00:25:05;;;;;;;2.02;1.70;;;5.50;99.90;;;;;;1987958;72;21077;-78
2021/04/18 00:27:32;;;;;;;4.53;2.00;;;5.50;99.90;;;;;;1988117;72;21110;-78
2021/04/18 00:29:58;;;;;;;2.22;1.62;;;5.40;99.90;;;;;;1988222;72;21044;-78
2021/04/18 00:32:24;;;;;;;2.30;1.70;;;5.40;99.90;;;;;;1988050;72;21080;-78
2021/04/18 00:34:50;;;;;;;2.10;1.77;;;5.20;99.90;;;;;;1988037;72;21065;-78
2021/04/18 00:37:16;;;;;;;5.65;1.70;;;5.30;99.90;;;;;;1987783;72;21036;-78
2021/04/18 00:39:45;;;;;;;2.45;1.70;;;5.30;99.90;;;;;;1987967;72;21089;-78
2021/04/18 00:42:10;;;;;;;1.85;1.62;;;5.30;99.90;;;;;;1987834;71;21151;-78
2021/04/18 00:44:36;;;;;;;2.40;1.52;;;5.30;99.90;;;;;;1988020;72;21110;-77
2021/04/18 00:47:02;;;;;;;3.77;2.05;;;5.30;99.90;;;;;;1987752;71;21157;-77
2021/04/18 00:49:28;;;;;;;1.60;1.50;;;5.30;99.90;;;;;;1987969;72;21070;-77
2021/04/18 00:51:54;;;;;;;2.83;2.05;;;5.30;99.90;;;;;;1987889;72;21070;-77
2021/04/18 00:54:26;;;;;;;4.08;1.70;;;5.30;99.90;;;;;;1987959;72;21077;-78
2021/04/18 00:56:52;;;;;;;2.98;1.52;;;5.20;99.90;;;;;;1989043;72;21567;-78
2021/04/18 00:59:19;;;;;;;2.98;1.72;;;5.20;99.90;;;;;;1987728;72;21122;-78
2021/04/18 01:01:45;;;;;;;3.02;2.02;;;5.20;99.90;;;;;;1988924;72;21057;-78
2021/04/18 01:04:11;;;;;;;2.25;1.80;;;5.20;99.90;;;;;;1988043;72;21150;-78
2021/04/18 01:06:37;;;;;;;3.02;1.65;;;5.20;99.90;;;;;;1992456;71;20990;-78
2021/04/18 01:09:03;;;;;;;2.72;1.70;;;5.20;99.90;;;;;;1987849;71;21113;-78
2021/04/18 01:11:29;;;;;;;2.45;2.02;;;5.20;99.90;;;;;;1987910;72;21009;-78
2021/04/18 01:13:55;;;;;;;1.70;1.60;;;5.20;99.90;;;;;;1987795;72;21077;-77
2021/04/18 01:16:21;;;;;;;4.40;2.10;;;5.20;99.90;;;;;;1987793;72;21073;-76
2021/04/18 01:18:48;;;;;;;4.30;1.90;;;5.10;99.90;;;;;;1987829;72;21069;-78
2021/04/18 01:21:14;;;;;;;2.00;1.80;;;5.00;99.90;;;;;;1987928;72;21561;-78
2021/04/18 01:23:41;;;;;;;2.35;1.80;;;4.90;99.90;;;;;;1987690;72;21472;-76
2021/04/18 01:26:07;;;;;;;2.00;1.85;;;4.90;99.90;;;;;;1987895;72;21159;-77
2021/04/18 01:28:33;;;;;;;3.42;2.00;;;5.00;99.90;;;;;;1987908;71;21538;-77
2021/04/18 01:30:59;;;;;;;2.70;1.80;;;5.00;99.90;;;;;;1987889;72;21464;-77
2021/04/18 01:33:25;;;;;;;2.00;1.80;;;5.10;99.90;;;;;;1987797;72;21045;-77
2021/04/18 01:35:52;;;;;;;3.08;2.15;;;5.10;99.90;;;;;;1987994;72;21133;-77
2021/04/18 01:38:18;;;;;;;2.83;2.12;;;4.90;99.90;;;;;;1987689;72;21053;-77
2021/04/18 01:40:44;;;;;;;3.35;1.87;;;4.80;99.90;;;;;;1988024;71;21222;-76
2021/04/18 01:43:10;;;;;;;2.87;2.30;;;4.80;99.90;;;;;;1987733;72;21426;-76
2021/04/18 01:45:36;;;;;;;3.55;2.27;;;4.90;99.90;;;;;;1987770;72;21521;-77
2021/04/18 01:48:02;;;;;;;7.60;1.60;;;5.00;99.90;;;;;;1988051;71;21516;-77
2021/04/18 01:50:31;;;;;;;2.27;1.62;;;5.00;99.90;;;;;;1987928;72;21073;-76
2021/04/18 01:52:56;;;;;;;2.45;2.12;;;5.00;99.90;;;;;;1988149;71;21155;-77
2021/04/18 01:55:22;;;;;;;2.52;1.90;;;5.00;99.90;;;;;;1987943;72;21534;-77
2021/04/18 01:57:48;;;;;;;2.40;1.87;;;5.00;99.90;;;;;;1987947;72;21501;-76
2021/04/18 02:00:14;;;;;;;2.10;1.45;;;5.00;99.90;;;;;;1987988;72;21538;-76
2021/04/18 02:02:41;;;;;;;3.12;1.80;;;5.10;99.90;;;;;;1987926;72;21495;-76
2021/04/18 02:05:07;;;;;;;2.85;1.87;;;5.00;99.90;;;;;;1987900;71;21163;-77
2021/04/18 02:07:33;;;;;;;1.90;1.65;;;5.00;99.90;;;;;;1987892;72;21066;-77
2021/04/18 02:09:59;;;;;;;2.72;1.87;;;5.00;99.90;;;;;;1988023;72;21069;-76
2021/04/18 02:12:25;;;;;;;15.98;2.42;;;5.00;99.90;;;;;;1987791;72;21073;-77
2021/04/18 02:14:51;;;;;;;2.30;2.10;;;5.00;99.90;;;;;;1987971;72;21078;-77
2021/04/18 02:17:17;;;;;;;1.98;1.77;;;4.90;99.90;;;;;;1988100;72;21041;-77
2021/04/18 02:19:43;;;;;;;4.83;2.62;;;4.90;99.90;;;;;;1988114;72;21044;-77
2021/04/18 02:22:09;;;;;;;3.83;2.47;;;4.90;99.90;;;;;;1988010;72;21017;-77
2021/04/18 02:24:36;;;;;;;3.62;2.08;;;4.90;99.90;;;;;;1987987;72;21159;-77
2021/04/18 02:27:02;;;;;;;3.47;2.00;;;4.90;99.90;;;;;;1987799;71;21088;-77
2021/04/18 02:29:30;;;;;;;2.35;1.98;;;4.90;99.90;;;;;;1987984;72;21073;-77
2021/04/18 02:31:56;;;;;;;5.28;2.47;;;4.90;99.90;;;;;;1987765;71;21132;-77
2021/04/18 02:34:22;;;;;;;5.50;2.20;;;5.00;99.90;;;;;;1987894;72;21078;-76
2021/04/18 02:36:48;;;;;;;3.30;2.02;;;4.90;99.90;;;;;;1987886;72;21077;-76
2021/04/18 02:39:14;;;;;;;2.72;2.05;;;4.90;99.90;;;;;;1987981;72;21202;-77
2021/04/18 02:41:40;;;;;;;2.50;2.00;;;5.00;99.90;;;;;;1987773;72;21065;-76
2021/04/18 02:44:06;;;;;;;3.52;2.08;;;4.90;99.90;;;;;;1987986;71;21062;-77
2021/04/18 02:46:32;;;;;;;2.12;1.90;;;4.80;99.90;;;;;;1987732;72;21129;-77
2021/04/18 02:48:58;;;;;;;5.33;2.25;;;4.80;99.90;;;;;;1987983;72;21489;-77
2021/04/18 02:51:25;;;;;;;2.50;2.17;;;4.90;99.90;;;;;;1987967;72;21485;-77
2021/04/18 02:53:58;;;;;;;3.80;2.08;;;4.80;99.90;;;;;;1987739;71;21574;-76
2021/04/18 02:56:18;;;;;;;2.40;2.20;;;4.80;99.90;;;;;;1983423;71;21073;-77
2021/04/18 02:58:45;;;;;;;4.25;2.33;;;4.70;99.90;;;;;;1988071;72;21065;-77
2021/04/18 03:01:11;;;;;;;3.42;1.98;;;4.70;99.90;;;;;;1987883;72;21478;-77
2021/04/18 03:03:37;;;;;;;2.17;1.98;;;4.90;99.90;;;;;;1987995;72;21485;-77
2021/04/18 03:06:03;;;;;;;2.35;2.12;;;4.90;99.90;;;;;;1987737;72;21484;-77
2021/04/18 03:08:29;;;;;;;2.45;2.20;;;4.90;99.90;;;;;;1987975;72;21069;-77
2021/04/18 03:10:55;;;;;;;3.00;2.10;;;4.90;99.90;;;;;;1987975;72;21069;-77
2021/04/18 03:13:21;;;;;;;3.45;2.40;;;4.80;99.90;;;;;;1991793;72;21052;-77
2021/04/18 03:15:47;;;;;;;3.98;2.22;;;4.80;99.90;;;;;;1987757;72;21122;-77
2021/04/18 03:18:14;;;;;;;3.05;2.20;;;4.70;99.90;;;;;;1987967;72;21147;-76
2021/04/18 03:20:40;;;;;;;3.00;2.35;;;4.60;99.90;;;;;;1987962;72;21042;-76
2021/04/18 03:23:06;;;;;;;3.87;2.45;;;4.60;99.90;;;;;;1988071;72;21049;-76
2021/04/18 03:25:32;;;;;;;2.45;2.22;;;4.70;99.90;;;;;;1991954;72;21033;-77
2021/04/18 03:27:58;;;;;;;11.18;2.35;;;4.80;99.90;;;;;;1991423;72;21477;-77
2021/04/18 03:30:24;;;;;;;3.47;2.40;;;4.80;99.90;;;;;;1990258;72;21581;-77
2021/04/18 03:32:50;;;;;;;4.22;2.27;;;4.80;99.90;;;;;;1989059;71;21570;-76
2021/04/18 03:35:18;;;;;;;2.90;2.47;;;4.80;99.90;;;;;;1987837;72;21085;-78
2021/04/18 03:37:44;;;;;;;3.25;2.02;;;4.90;99.90;;;;;;1989038;72;21137;-77
2021/04/18 03:40:10;;;;;;;3.83;2.50;;;4.80;99.90;;;;;;1987760;72;21052;-76
2021/04/18 03:42:36;;;;;;;3.98;2.27;;;4.90;99.90;;;;;;1991638;72;21521;-77
2021/04/18 03:45:02;;;;;;;3.27;2.55;;;4.80;99.90;;;;;;1989027;71;21438;-76
2021/04/18 03:47:28;;;;;;;4.20;2.90;;;4.80;99.90;;;;;;1988067;72;21480;-76
2021/04/18 03:49:55;;;;;;;3.12;2.62;;;4.80;99.90;;;;;;1992310;71;21170;-76
2021/04/18 03:52:21;;;;;;;5.12;2.60;;;4.80;99.90;;;;;;1989426;71;21086;-77
2021/04/18 03:54:47;;;;;;;3.60;2.47;;;4.80;99.90;;;;;;1987722;72;21052;-77
2021/04/18 03:57:13;;;;;;;2.70;2.27;;;4.80;99.90;;;;;;1987869;72;21151;-77
2021/04/18 03:59:39;;;;;;;7.78;2.90;;;4.80;99.90;;;;;;1987790;71;21077;-77
2021/04/18 04:02:07;;;;;;;3.17;2.87;;;4.80;99.90;;;;;;1987780;72;21081;-77
2021/04/18 04:04:33;;;;;;;2.65;2.40;;;4.80;99.90;;;;;;1987768;72;21488;-77
2021/04/18 04:06:59;;;;;;;2.12;1.92;;;4.80;99.90;;;;;;1987666;72;21417;-77
2021/04/18 04:09:25;;;;;;;3.08;2.60;;;4.80;99.90;;;;;;1987917;72;21562;-77
2021/04/18 04:11:51;;;;;;;3.47;2.50;;;4.80;99.90;;;;;;1987728;72;21126;-77
2021/04/18 04:14:17;;;;;;;3.90;2.95;;;4.90;99.90;;;;;;1987935;72;21150;-77
2021/04/18 04:16:43;;;;;;;3.50;2.92;;;4.80;99.90;;;;;;1987829;72;21045;-77
2021/04/18 04:19:10;;;;;;;4.40;2.75;;;4.80;99.90;;;;;;1987928;72;21143;-77
2021/04/18 04:21:36;;;;;;;4.65;3.22;;;4.80;99.90;;;;;;1987797;72;21081;-77
2021/04/18 04:24:02;;;;;;;2.95;2.60;;;4.80;99.90;;;;;;1987812;72;21068;-77
2021/04/18 04:26:28;;;;;;;3.40;2.90;;;4.90;99.90;;;;;;1987778;72;21093;-77
2021/04/18 04:28:54;;;;;;;3.27;2.75;;;4.90;99.90;;;;;;1987784;72;21528;-78
2021/04/18 04:31:20;;;;;;;3.92;2.42;;;4.90;99.90;;;;;;1987792;72;21534;-78
2021/04/18 04:33:46;;;;;;;4.22;2.58;;;5.00;99.90;;;;;;1987865;72;21509;-77
2021/04/18 04:36:12;;;;;;;3.37;2.52;;;5.00;99.90;;;;;;1987690;72;21551;-77
2021/04/18 04:38:38;;;;;;;6.60;2.67;;;5.00;99.90;;;;;;1987878;72;21066;-77
2021/04/18 04:41:05;;;;;;;2.98;2.55;;;4.90;99.90;;;;;;1987685;72;21088;-77
2021/04/18 04:43:32;;;;;;;4.22;3.08;;;4.90;99.90;;;;;;1987918;72;21073;-78
2021/04/18 04:45:58;;;;;;;2.98;2.67;;;4.80;99.90;;;;;;1987781;72;21491;-77
2021/04/18 04:48:24;;;;;;;3.95;2.92;;;4.80;99.90;;;;;;1977138;72;21499;-77
2021/04/18 04:50:51;;;;;;;3.95;2.90;;;4.90;99.90;;;;;;1987895;72;21493;-77
2021/04/18 04:53:17;;;;;;;4.40;3.35;;;4.90;99.90;;;;;;1987910;71;21069;-78
2021/04/18 04:55:45;;;;;;;3.12;2.83;;;4.90;99.90;;;;;;1987711;72;21026;-77
2021/04/18 04:58:11;;;;;;;3.40;2.83;;;4.80;99.90;;;;;;1987833;71;21466;-77
2021/04/18 05:00:37;;;;;;;3.35;2.83;;;4.80;99.90;;;;;;1987908;72;21465;-78
2021/04/18 05:03:03;;;;;;;4.28;2.77;;;4.90;99.90;;;;;;1987675;72;21497;-78
2021/04/18 05:05:29;;;;;;;4.45;3.33;;;4.90;99.90;;;;;;1987942;72;21049;-77
2021/04/18 05:07:55;;;;;;;6.22;3.60;;;5.00;99.90;;;;;;1987665;72;21161;-77
2021/04/18 05:10:21;;;;;;;4.87;3.22;;;5.00;99.90;;;;;;1987898;72;21061;-77
2021/04/18 05:12:47;;;;;;;4.80;3.45;;;5.00;99.90;;;;;;1987712;72;21110;-77
2021/04/18 05:15:13;;;;;;;5.62;3.50;;;5.00;99.90;;;;;;1987893;72;21073;-77
2021/04/18 05:17:40;;;;;;;6.33;2.90;;;5.10;99.90;;;;;;1987847;71;21030;-77
2021/04/18 05:20:06;;;;;;;3.45;2.62;;;5.10;99.90;;;;;;1988012;72;21041;-77
2021/04/18 05:22:32;;;;;;;5.08;3.08;;;5.20;99.90;;;;;;1988042;72;21066;-77
2021/04/18 05:24:58;;;;;;;4.12;3.08;;;5.20;99.90;;;;;;1987761;72;21058;-77
2021/04/18 05:27:24;;;;;;;4.55;3.55;;;5.30;99.90;;;;;;1987788;71;21018;-78
2021/04/18 05:29:52;;;;;;;4.25;2.77;;;5.40;99.90;;;;;;1987754;72;21048;-78
2021/04/18 05:32:18;;;;;;;4.05;3.12;;;5.40;99.90;;;;;;1987775;72;21151;-78
2021/04/18 05:34:46;;;;;;;4.60;3.20;;;5.40;99.90;;;;;;1987864;72;21101;-78
2021/04/18 05:37:12;;;;;;;4.08;2.83;;;5.40;99.90;;;;;;1987722;71;21066;-76
2021/04/18 05:39:38;;;;;;;7.10;3.10;;;5.40;99.90;;;;;;1987778;72;21109;-78
2021/04/18 05:42:05;;;;;;;4.25;3.00;;;5.40;99.90;;;;;;1989066;70;21192;-78
2021/04/18 05:44:31;;;;;;;3.20;2.87;;;5.60;99.90;;;;;;1987791;72;21085;-75
2021/04/18 05:46:57;;;;;;;4.78;2.85;;;5.60;99.90;;;;;;1987683;71;21496;-76
2021/04/18 05:49:23;;;;;;;3.52;3.08;;;5.50;99.90;;;;;;1988468;72;21489;-75
2021/04/18 05:51:49;;;;;;;6.72;4.00;;;5.50;99.90;;;;;;1994647;72;21469;-75
2021/04/18 05:54:15;;;;;;;3.33;2.58;;;5.50;99.90;;;;;;1989000;72;21091;-76
2021/04/18 05:56:41;;;;;;;6.08;3.20;;;5.50;99.90;;;;;;1987762;72;21122;-75
2021/04/18 05:59:07;;;;;;;7.83;3.45;;;5.50;99.90;;;;;;1987758;72;21014;-73
2021/04/18 06:01:33;;;;;;;4.28;3.15;;;5.70;99.90;;;;;;1987750;72;21045;-74
2021/04/18 06:04:00;;;;;;;2.85;2.65;;;5.70;99.90;;;;;;1987746;72;21081;-74
2021/04/18 06:06:26;;;;;;;5.45;3.22;;;5.80;99.90;;;;;;1987737;71;21118;-74
2021/04/18 06:08:52;;;;;;;5.33;3.33;;;5.70;99.90;;;;;;1987760;72;21045;-74
2021/04/18 06:11:18;;;;;;;2.55;2.35;;;5.80;99.90;;;;;;1987809;72;20989;-74
2021/04/18 06:13:44;;;;;;;6.00;4.08;;;5.80;99.90;;;;;;1987895;72;21129;-74
2021/04/18 06:16:10;;;;;;;6.50;2.83;;;5.80;99.90;;;;;;1988021;72;21053;-74
2021/04/18 06:18:36;;;;;;;4.17;3.10;;;5.90;99.90;;;;;;1988020;71;21041;-74
2021/04/18 06:21:02;;;;;;;4.08;3.02;;;6.00;99.90;;;;;;1988188;72;21114;-74
2021/04/18 06:23:29;;;;;;;3.92;3.12;;;6.10;99.90;;;;;;1988189;72;21048;-74
2021/04/18 06:25:55;;;;;;;6.37;3.52;;;5.90;99.90;;;;;;1987966;72;21528;-74
2021/04/18 06:28:21;;;;;;;4.47;3.33;;;6.00;99.90;;;;;;1987863;72;21548;-85
2021/04/18 06:30:47;;;;;;;6.47;3.70;;;6.10;99.90;;;;;;1987891;72;21601;-74
2021/04/18 06:33:13;;;;;;;4.17;3.30;;;5.90;99.90;;;;;;1987854;72;21069;-74
2021/04/18 06:35:39;;;;;;;3.42;2.87;;;6.00;99.90;;;;;;1988084;72;21045;-74
2021/04/18 06:38:05;;;;;;;5.65;3.22;;;6.10;99.90;;;;;;1987878;71;21121;-74
2021/04/18 06:40:31;;;;;;;3.20;2.72;;;5.90;99.90;;;;;;1987868;72;21066;-75
2021/04/18 06:42:58;;;;;;;7.80;3.37;;;5.90;99.90;;;;;;1987850;72;21077;-75
2021/04/18 06:45:24;;;;;;;7.70;3.05;;;5.80;99.90;;;;;;1987907;72;21058;-74
2021/04/18 06:47:50;;;;;;;5.00;3.47;;;5.80;99.90;;;;;;1987772;72;21073;-75
2021/04/18 06:50:16;;;;;;;5.45;3.12;;;5.70;99.90;;;;;;1987871;72;21073;-74
2021/04/18 06:52:42;;;;;;;6.00;3.27;;;5.70;99.90;;;;;;1987874;72;21066;-74
2021/04/18 06:55:08;;;;;;;4.22;3.30;;;5.90;99.90;;;;;;1987782;72;21465;-74
2021/04/18 06:57:34;;;;;;;5.78;3.60;;;5.90;99.90;;;;;;1987957;72;21548;-74
2021/04/18 07:00:00;;;;;;;5.25;3.50;;;5.80;99.90;;;;;;1987754;71;21149;-74
2021/04/18 07:02:27;;;;;;;4.40;3.08;;;5.80;99.90;;;;;;1988013;72;21066;-75
2021/04/18 07:04:53;;;;;;;5.40;3.40;;;5.80;99.90;;;;;;1987812;72;21118;-74
2021/04/18 07:07:19;;;;;;;9.58;3.85;;;5.90;99.90;;;;;;1987826;72;21233;-74
2021/04/18 07:09:46;;;;;;;5.03;3.62;;;5.90;99.90;;;;;;1987756;72;21117;-73
2021/04/18 07:12:12;;;;;;;4.85;4.00;;;6.20;99.90;;;;;;1987798;72;21586;-73
2021/04/18 07:14:39;;;;;;;9.50;3.65;;;6.20;99.90;;;;;;1987841;71;21500;-73
2021/04/18 07:17:05;;;;;;;7.10;3.30;;;6.10;99.90;;;;;;1987860;71;21113;-73
2021/04/18 07:19:32;;;;;;;7.70;4.50;;;6.10;99.90;;;;;;1987993;72;21493;-73
2021/04/18 07:21:58;;;;;;;7.37;4.00;;;5.90;99.90;;;;;;1987903;72;21018;-73
2021/04/18 07:24:25;;;;;;;5.35;4.12;;;5.70;99.90;;;;;;1987846;71;21133;-74
2021/04/18 07:26:51;;;;;;;6.03;4.67;;;5.60;99.90;;;;;;1988653;72;21167;-73
2021/04/18 07:29:17;;;;;;;6.75;4.12;;;5.70;99.90;;;;;;1987745;71;21073;-74
2021/04/18 07:31:43;;;;;;;17.42;4.47;;;6.00;99.90;;;;;;1987913;72;21077;-75
2021/04/18 07:34:09;;;;;;;10.25;4.65;;;6.20;99.90;;;;;;1987779;72;21061;-71
2021/04/18 07:36:35;;;;;;;7.75;3.77;;;6.30;99.90;;;;;;1987826;72;21109;-74
2021/04/18 07:39:01;;;;;;;4.42;3.58;;;6.50;99.90;;;;;;1988984;71;21057;-77
2021/04/18 07:41:28;;;;;;;4.87;3.62;;;6.80;99.90;;;;;;1987706;72;21048;-75
2021/04/18 07:43:56;;;;;;;6.20;3.70;;;7.10;99.90;;;;;;1987972;72;21113;-75
2021/04/18 07:46:22;;;;;;;4.85;3.60;;;6.90;99.90;;;;;;1988059;71;21029;-75
2021/04/18 07:48:48;;;;;;;8.43;3.83;;;6.90;99.90;;;;;;1987845;72;21509;-75
2021/04/18 07:51:14;;;;;;;7.75;3.83;;;6.80;99.90;;;;;;1987874;72;21574;-75
2021/04/18 07:53:41;;;;;;;6.58;3.98;;;6.60;99.90;;;;;;1987853;71;21026;-75
2021/04/18 07:56:07;;;;;;;4.17;3.33;;;6.50;99.90;;;;;;1987869;72;21151;-73
2021/04/18 07:58:34;;;;;;;7.37;4.55;;;6.50;99.90;;;;;;1987862;72;21143;-75
2021/04/18 08:01:00;;;;;;;7.47;4.30;;;6.70;99.90;;;;;;1987834;72;21073;-74
2021/04/18 08:03:26;;;;;;;6.12;3.87;;;6.80;99.90;;;;;;1987811;71;21159;-74
2021/04/18 08:05:52;;;;;;;7.22;4.05;;;6.80;99.90;;;;;;1987766;71;21067;-74
2021/04/18 08:08:18;;;;;;;6.90;4.10;;;6.90;99.90;;;;;;1987959;72;21066;-74
2021/04/18 08:10:44;;;;;;;4.35;3.35;;;6.80;99.90;;;;;;1987662;72;21042;-74
2021/04/18 08:13:11;;;;;;;5.60;4.17;;;6.90;99.90;;;;;;1988050;72;21169;-75
2021/04/18 08:15:37;;;;;;;4.03;3.50;;;7.20;99.90;;;;;;1988612;70;21060;-74
2021/04/18 08:18:03;;;;;;;7.60;4.58;;;7.50;99.90;;;;;;1990484;72;21077;-74
2021/04/18 08:20:29;;;;;;;10.72;4.58;;;7.50;99.90;;;;;;1991543;72;21041;-74
2021/04/18 08:22:55;;;;;;;8.68;4.22;;;7.60;99.90;;;;;;1987966;71;21125;-74
2021/04/18 08:25:21;;;;;;;10.08;3.80;;;7.50;99.90;;;;;;1988047;71;21151;-74
2021/04/18 08:27:47;;;;;;;5.92;3.25;;;7.60;99.90;;;;;;1987976;72;21044;-75
2021/04/18 08:30:14;;;;;;;7.58;4.08;;;7.60;99.90;;;;;;1987932;72;21046;-74
2021/04/18 08:32:40;;;;;;;7.75;4.03;;;7.40;99.90;;;;;;1988007;71;21118;-74
2021/04/18 08:35:06;;;;;;;4.53;3.33;;;7.60;99.90;;;;;;1987994;71;21061;-74
2021/04/18 08:37:32;;;;;;;5.90;3.77;;;7.50;99.90;;;;;;1987717;72;21057;-75
2021/04/18 08:39:58;;;;;;;5.25;3.50;;;7.60;99.90;;;;;;1987925;72;21070;-74
2021/04/18 08:42:24;;;;;;;5.67;3.90;;;7.70;99.90;;;;;;1987842;72;21085;-74
2021/04/18 08:44:51;;;;;;;9.50;4.10;;;7.70;99.90;;;;;;1988008;72;21521;-76
2021/04/18 08:47:20;;;;;;;6.22;3.17;;;7.90;99.90;;;;;;1987657;72;21111;-74
2021/04/18 08:49:45;;;;;;;9.95;2.95;;;7.90;99.90;;;;;;1987658;71;21140;-73
2021/04/18 08:52:12;;;;;;;6.53;3.37;;;7.90;99.90;;;;;;1987697;72;21053;-74
2021/04/18 08:54:38;;;;;;;5.30;3.15;;;7.80;99.90;;;;;;1987872;72;21150;-75
2021/04/18 08:57:05;;;;;;;5.65;3.55;;;7.80;99.90;;;;;;1987667;72;21524;-74
2021/04/18 08:59:33;;;;;;;6.72;3.75;;;7.70;99.90;;;;;;1987926;72;21093;-74
2021/04/18 09:02:03;;;;;;;6.30;3.72;;;7.70;99.90;;;;;;1987944;71;21066;-74
2021/04/18 09:04:31;;;;;;;6.45;3.37;;;7.60;99.90;;;;;;1988085;72;21073;-75
2021/04/18 09:06:57;;;;;;;5.97;3.58;;;7.70;99.90;;;;;;1987871;71;21085;-75
2021/04/18 09:09:23;;;;;;;6.08;3.15;;;7.70;99.90;;;;;;1987847;72;21021;-75
2021/04/18 09:11:49;;;;;;;10.70;4.30;;;8.10;99.90;;;;;;1987831;72;21150;-75
2021/04/18 09:14:16;;;;;;;11.43;3.67;;;8.30;99.90;;;;;;1987697;72;21531;-75
2021/04/18 09:16:42;;;;;;;6.92;3.30;;;8.20;99.90;;;;;;1987920;72;21073;-74
2021/04/18 09:19:08;;;;;;;6.85;3.20;;;8.30;99.90;;;;;;1987663;71;21109;-75
2021/04/18 09:21:34;;;;;;;6.37;3.35;;;8.20;99.90;;;;;;1987883;72;21158;-74
2021/04/18 09:24:00;;;;;;;9.05;3.70;;;7.90;99.90;;;;;;1987666;72;21032;-74
2021/04/18 09:26:27;;;;;;;5.90;2.83;;;7.70;99.90;;;;;;1987794;72;21101;-75
2021/04/18 09:28:53;;;;;;;7.83;3.27;;;7.90;99.90;;;;;;1987718;71;21130;-74
2021/04/18 09:31:19;;;;;;;6.92;3.30;;;8.10;99.90;;;;;;1987949;71;21070;-75
2021/04/18 09:33:45;;;;;;;8.30;3.52;;;8.00;99.90;;;;;;1987939;72;21095;-75
2021/04/18 09:36:11;;;;;;;6.22;3.37;;;7.90;99.90;;;;;;1987855;72;21085;-74
2021/04/18 09:38:38;;;;;;;4.53;2.85;;;8.10;99.90;;;;;;1987633;72;21425;-74
2021/04/18 09:41:04;;;;;;;15.48;5.50;;;8.30;99.90;;;;;;1987845;72;21578;-74
2021/04/18 09:43:30;;;;;;;4.05;2.55;;;8.30;99.90;;;;;;1987880;71;21462;-74
2021/04/18 09:45:56;;;;;;;4.12;3.02;;;8.20;99.90;;;;;;1987839;72;21504;-75
2021/04/18 09:48:22;;;;;;;6.83;2.62;;;8.20;99.90;;;;;;1989232;71;21061;-74
2021/04/18 09:50:48;;;;;;;8.80;2.92;;;8.20;99.90;;;;;;1989936;72;21057;-74
2021/04/18 09:53:14;;;;;;;7.08;3.00;;;8.30;99.90;;;;;;1987753;72;21081;-75
2021/04/18 09:55:40;;;;;;;3.87;2.72;;;8.40;99.90;;;;;;1987759;72;21049;-74
2021/04/18 09:58:07;;;;;;;3.98;2.50;;;8.80;99.90;;;;;;1988153;72;21107;-74
2021/04/18 10:00:33;;;;;;;4.85;3.22;;;8.90;99.90;;;;;;1987845;72;21066;-75
2021/04/18 10:03:00;;;;;;;6.85;3.00;;;9.00;99.90;;;;;;1987727;72;21080;-74
2021/04/18 10:05:26;;;;;;;6.10;2.87;;;9.30;99.90;;;;;;1987843;71;21144;-75
2021/04/18 10:07:52;;;;;;;10.63;2.80;;;9.50;99.90;;;;;;1987873;71;21085;-75
2021/04/18 10:10:18;;;;;;;6.42;2.55;;;9.40;99.90;;;;;;1988060;71;21058;-74
2021/04/18 10:12:44;;;;;;;7.62;3.05;;;9.10;99.90;;;;;;1987868;72;21127;-74
2021/04/18 10:15:10;;;;;;;9.23;3.05;;;8.90;99.90;;;;;;1987882;72;21614;-74
2021/04/18 10:17:36;;;;;;;4.87;2.77;;;8.80;99.90;;;;;;1987915;72;21571;-74
2021/04/18 10:20:03;;;;;;;9.28;4.33;;;9.00;99.90;;;;;;1987945;71;21502;-75
2021/04/18 10:22:29;;;;;;;10.08;3.37;;;9.10;99.90;;;;;;1987900;72;21071;-74
2021/04/18 10:24:57;;;;;;;18.40;5.10;;;9.30;99.90;;;;;;1987882;72;21070;-74
2021/04/18 10:27:23;;;;;;;5.03;3.30;;;9.30;99.90;;;;;;1987741;71;21493;-74
2021/04/18 10:29:49;;;;;;;8.35;3.20;;;9.50;99.90;;;;;;1987970;72;21151;-74
2021/04/18 10:32:15;;;;;;;9.68;3.58;;;9.60;99.90;;;;;;1987777;72;21161;-74
2021/04/18 10:34:41;;;;;;;4.42;2.85;;;9.60;99.90;;;;;;1988034;71;21085;-74
2021/04/18 10:37:08;;;;;;;5.25;2.70;;;9.80;99.90;;;;;;1987804;72;21044;-75
2021/04/18 10:39:34;;;;;;;8.00;3.62;;;9.50;99.90;;;;;;1988016;72;21150;-74
2021/04/18 10:42:00;;;;;;;5.00;3.25;;;9.20;99.90;;;;;;1987782;71;21065;-74
2021/04/18 10:44:27;;;;;;;5.67;3.15;;;9.60;99.90;;;;;;1987904;72;21087;-74
2021/04/18 10:46:53;;;;;;;6.92;3.45;;;9.60;99.90;;;;;;1987853;72;21077;-74
2021/04/18 10:49:19;;;;;;;6.65;3.72;;;9.30;99.90;;;;;;1987997;72;21021;-74
2021/04/18 10:51:47;;;;;;;6.20;3.47;;;9.30;99.90;;;;;;1987901;72;21121;-74
2021/04/18 10:54:13;;;;;;;9.48;3.22;;;9.60;99.90;;;;;;1987888;72;21085;-74
2021/04/18 10:56:40;;;;;;;8.08;3.58;;;9.70;99.90;;;;;;1988119;72;21118;-75
2021/04/18 10:59:07;;;;;;;3.22;2.90;;;10.00;99.90;;;;;;1987902;72;21558;-74
2021/04/18 11:01:33;;;;;;;3.90;2.95;;;10.10;99.90;;;;;;1987879;72;21124;-75
2021/04/18 11:03:59;;;;;;;5.53;3.17;;;10.40;99.90;;;;;;1987805;72;21070;-75
2021/04/18 11:06:25;;;;;;;7.78;3.60;;;10.60;99.90;;;;;;1987841;72;21217;-75
2021/04/18 11:08:51;;;;;;;7.90;3.62;;;10.20;99.90;;;;;;1988026;72;21074;-76
2021/04/18 11:11:19;;;;;;;6.00;3.50;;;10.00;99.90;;;;;;1987939;72;21049;-75
2021/04/18 11:13:45;;;;;;;9.75;4.00;;;9.90;99.90;;;;;;1987994;72;21143;-75
2021/04/18 11:16:11;;;;;;;5.85;3.77;;;9.60;99.90;;;;;;1987911;72;21065;-75
2021/04/18 11:18:37;;;;;;;6.08;3.42;;;9.80;99.90;;;;;;1988077;72;21077;-75
2021/04/18 11:21:03;;;;;;;4.05;3.20;;;9.90;99.90;;;;;;1987897;72;21085;-75
2021/04/18 11:23:29;;;;;;;8.70;3.80;;;10.20;99.90;;;;;;1988138;71;21065;-75
2021/04/18 11:25:55;;;;;;;8.90;3.40;;;10.20;99.90;;;;;;1988050;72;21113;-74
2021/04/18 11:28:21;;;;;;;4.50;3.20;;;10.00;99.90;;;;;;1988194;71;21050;-75
2021/04/18 11:30:48;;;;;;;8.43;4.00;;;10.20;99.90;;;;;;1988160;72;21045;-74
2021/04/18 11:33:15;;;;;;;7.92;3.25;;;10.40;99.90;;;;;;1988012;72;21070;-73
2021/04/18 11:35:41;;;;;;;4.70;3.20;;;10.70;99.90;;;;;;1988381;71;21114;-74
2021/04/18 11:38:07;;;;;;;5.28;2.98;;;10.80;99.90;;;;;;1988111;71;21026;-74
2021/04/18 11:40:34;;;;;;;6.53;3.75;;;10.90;99.90;;;;;;1987756;72;21045;-74
2021/04/18 11:43:01;;;;;;;9.63;3.62;;;10.70;99.90;;;;;;1988025;72;21081;-73
2021/04/18 11:45:27;;;;;;;6.55;3.62;;;10.70;99.90;;;;;;1987952;72;21093;-74
2021/04/18 11:47:53;;;;;;;7.92;3.55;;;11.00;99.90;;;;;;1989003;72;21064;-73
2021/04/18 11:50:20;;;;;;;6.20;3.22;;;10.40;99.90;;;;;;1989824;71;21081;-73
2021/04/18 11:52:47;;;;;;;6.90;3.62;;;10.90;99.90;;;;;;1989669;72;21021;-74
2021/04/18 11:55:15;;;;;;;5.37;3.52;;;10.20;99.90;;;;;;1987936;71;21081;-74
2021/04/18 11:57:41;;;;;;;6.60;3.40;;;10.50;99.90;;;;;;1987794;71;21060;-73
2021/04/18 12:00:07;;;;;;;8.28;3.65;;;10.60;99.90;;;;;;1989107;72;21579;-74
2021/04/18 12:02:35;;;;;;;5.47;3.12;;;10.80;99.90;;;;;;1990124;71;21101;-74
2021/04/18 12:05:01;;;;;;;6.12;2.90;;;11.00;99.90;;;;;;1993449;72;21106;-74
2021/04/18 12:07:27;;;;;;;4.72;2.95;;;10.90;99.90;;;;;;1988927;72;21061;-73
2021/04/18 12:09:53;;;;;;;9.85;3.47;;;10.80;99.90;;;;;;1987933;71;21066;-75
2021/04/18 12:12:20;;;;;;;8.43;3.47;;;11.00;99.90;;;;;;1987987;72;21142;-73
2021/04/18 12:14:46;;;;;;;4.85;2.90;;;11.00;99.90;;;;;;1987728;72;21128;-73
2021/04/18 12:17:12;;;;;;;5.15;3.30;;;11.00;99.90;;;;;;1988034;71;21066;-74
2021/04/18 12:19:38;;;;;;;6.65;3.17;;;11.00;99.90;;;;;;1987781;72;21081;-74
2021/04/18 12:22:04;;;;;;;7.50;3.42;;;10.90;99.90;;;;;;1988002;71;21069;-74
2021/04/18 12:24:30;;;;;;;4.08;3.33;;;10.90;99.90;;;;;;1987677;72;21025;-73
2021/04/18 12:26:56;;;;;;;7.05;3.40;;;10.80;99.90;;;;;;1977133;72;21079;-73
2021/04/18 12:29:22;;;;;;;5.28;3.10;;;10.40;99.90;;;;;;1987722;72;21103;-73
2021/04/18 12:31:49;;;;;;;6.30;3.52;;;10.60;99.90;;;;;;1987875;71;21058;-73
2021/04/18 12:34:15;;;;;;;7.15;3.98;;;10.60;99.90;;;;;;1987862;72;21062;-73
2021/04/18 12:36:41;;;;;;;3.85;3.00;;;10.80;99.90;;;;;;1987718;72;21438;-73
2021/04/18 12:39:07;;;;;;;5.10;3.15;;;11.00;99.90;;;;;;1987976;71;21502;-74
2021/04/18 12:41:34;;;;;;;4.65;2.75;;;11.10;99.90;;;;;;1987780;72;21520;-74
2021/04/18 12:44:00;;;;;;;3.95;2.77;;;11.30;99.90;;;;;;1987963;72;21509;-75
2021/04/18 12:46:26;;;;;;;5.05;2.90;;;11.20;99.90;;;;;;1987653;72;21556;-74
2021/04/18 12:48:52;;;;;;;4.72;3.17;;;11.30;99.90;;;;;;1988025;72;21081;-73